sensor_id;sensor_type;location;lat;lon;timestamp;P1;durP1;ratioP1;P2;durP2;ratioP2
249;SDS011;109;19.806;-70.704;2023-05-23T00:00:56;7.10;;;4.23;;
249;SDS011;109;19.806;-70.704;2023-05-23T00:03:24;14.10;;;4.53;;
249;SDS011;109;19.806;-70.704;2023-05-23T00:05:51;14.17;;;4.27;;
249;SDS011;109;19.806;-70.704;2023-05-23T00:08:17;8.83;;;4.43;;
249;SDS011;109;19.806;-70.704;2023-05-23T00:10:44;21.60;;;6.57;;
249;SDS011;109;19.806;-70.704;2023-05-23T00:13:11;10.43;;;4.30;;
249;SDS011;109;19.806;-70.704;2023-05-23T00:15:38;17.07;;;5.47;;
249;SDS011;109;19.806;-70.704;2023-05-23T00:18:06;13.40;;;4.53;;
249;SDS011;109;19.806;-70.704;2023-05-23T00:20:37;5.73;;;3.73;;
249;SDS011;109;19.806;-70.704;2023-05-23T00:23:07;6.13;;;3.70;;
249;SDS011;109;19.806;-70.704;2023-05-23T00:25:35;10.20;;;4.97;;
249;SDS011;109;19.806;-70.704;2023-05-23T00:28:02;10.90;;;6.27;;
249;SDS011;109;19.806;-70.704;2023-05-23T00:30:30;13.47;;;5.73;;
249;SDS011;109;19.806;-70.704;2023-05-23T00:32:57;11.70;;;6.60;;
249;SDS011;109;19.806;-70.704;2023-05-23T00:35:45;18.23;;;7.57;;
249;SDS011;109;19.806;-70.704;2023-05-23T00:38:18;11.17;;;7.13;;
249;SDS011;109;19.806;-70.704;2023-05-23T00:40:45;11.97;;;6.23;;
249;SDS011;109;19.806;-70.704;2023-05-23T00:43:19;12.90;;;6.00;;
249;SDS011;109;19.806;-70.704;2023-05-23T00:45:47;17.90;;;6.40;;
249;SDS011;109;19.806;-70.704;2023-05-23T00:48:20;10.47;;;6.60;;
249;SDS011;109;19.806;-70.704;2023-05-23T00:50:47;12.33;;;6.90;;
249;SDS011;109;19.806;-70.704;2023-05-23T00:53:21;12.50;;;6.40;;
249;SDS011;109;19.806;-70.704;2023-05-23T00:55:47;11.07;;;6.20;;
249;SDS011;109;19.806;-70.704;2023-05-23T00:58:21;9.10;;;5.80;;
249;SDS011;109;19.806;-70.704;2023-05-23T01:00:55;10.67;;;5.90;;
249;SDS011;109;19.806;-70.704;2023-05-23T01:03:28;7.77;;;5.50;;
249;SDS011;109;19.806;-70.704;2023-05-23T01:05:55;8.10;;;5.63;;
249;SDS011;109;19.806;-70.704;2023-05-23T01:08:28;7.50;;;5.30;;
249;SDS011;109;19.806;-70.704;2023-05-23T01:10:56;6.23;;;5.00;;
249;SDS011;109;19.806;-70.704;2023-05-23T01:13:41;10.27;;;5.77;;
249;SDS011;109;19.806;-70.704;2023-05-23T01:16:26;8.37;;;5.83;;
249;SDS011;109;19.806;-70.704;2023-05-23T01:19:13;8.77;;;5.00;;
249;SDS011;109;19.806;-70.704;2023-05-23T01:22:10;7.37;;;5.37;;
249;SDS011;109;19.806;-70.704;2023-05-23T01:24:53;9.00;;;6.43;;
249;SDS011;109;19.806;-70.704;2023-05-23T01:30:18;10.10;;;6.70;;
249;SDS011;109;19.806;-70.704;2023-05-23T01:32:46;14.77;;;6.50;;
249;SDS011;109;19.806;-70.704;2023-05-23T01:35:23;12.90;;;7.53;;
249;SDS011;109;19.806;-70.704;2023-05-23T01:38:04;10.10;;;7.37;;
249;SDS011;109;19.806;-70.704;2023-05-23T01:40:31;8.70;;;6.30;;
249;SDS011;109;19.806;-70.704;2023-05-23T01:43:04;12.13;;;6.80;;
249;SDS011;109;19.806;-70.704;2023-05-23T01:45:32;11.70;;;6.00;;
249;SDS011;109;19.806;-70.704;2023-05-23T01:48:05;9.90;;;5.60;;
249;SDS011;109;19.806;-70.704;2023-05-23T01:50:34;13.60;;;6.43;;
249;SDS011;109;19.806;-70.704;2023-05-23T01:53:07;7.50;;;5.70;;
249;SDS011;109;19.806;-70.704;2023-05-23T01:55:35;9.97;;;6.40;;
249;SDS011;109;19.806;-70.704;2023-05-23T01:58:08;11.07;;;6.70;;
249;SDS011;109;19.806;-70.704;2023-05-23T02:00:43;11.20;;;6.23;;
249;SDS011;109;19.806;-70.704;2023-05-23T02:03:16;18.93;;;6.70;;
249;SDS011;109;19.806;-70.704;2023-05-23T02:05:43;11.70;;;6.27;;
249;SDS011;109;19.806;-70.704;2023-05-23T02:08:16;14.17;;;6.50;;
249;SDS011;109;19.806;-70.704;2023-05-23T02:10:43;10.93;;;6.50;;
249;SDS011;109;19.806;-70.704;2023-05-23T02:13:18;11.53;;;6.40;;
249;SDS011;109;19.806;-70.704;2023-05-23T02:15:45;13.03;;;6.37;;
249;SDS011;109;19.806;-70.704;2023-05-23T02:18:19;9.37;;;5.83;;
249;SDS011;109;19.806;-70.704;2023-05-23T02:20:49;12.73;;;6.53;;
249;SDS011;109;19.806;-70.704;2023-05-23T02:23:21;12.37;;;6.53;;
249;SDS011;109;19.806;-70.704;2023-05-23T02:25:48;8.73;;;5.83;;
249;SDS011;109;19.806;-70.704;2023-05-23T02:28:22;9.50;;;6.10;;
249;SDS011;109;19.806;-70.704;2023-05-23T02:30:48;10.73;;;6.50;;
249;SDS011;109;19.806;-70.704;2023-05-23T02:33:22;10.73;;;6.13;;
249;SDS011;109;19.806;-70.704;2023-05-23T02:36:08;8.73;;;5.40;;
249;SDS011;109;19.806;-70.704;2023-05-23T02:38:42;7.57;;;5.30;;
249;SDS011;109;19.806;-70.704;2023-05-23T02:41:09;9.60;;;5.40;;
249;SDS011;109;19.806;-70.704;2023-05-23T02:43:46;8.80;;;5.63;;
249;SDS011;109;19.806;-70.704;2023-05-23T02:46:14;8.40;;;6.03;;
249;SDS011;109;19.806;-70.704;2023-05-23T02:48:49;9.73;;;6.00;;
249;SDS011;109;19.806;-70.704;2023-05-23T02:51:15;6.13;;;5.10;;
249;SDS011;109;19.806;-70.704;2023-05-23T02:53:48;10.03;;;5.90;;
249;SDS011;109;19.806;-70.704;2023-05-23T02:56:23;8.30;;;5.20;;
249;SDS011;109;19.806;-70.704;2023-05-23T02:58:58;9.73;;;5.93;;
249;SDS011;109;19.806;-70.704;2023-05-23T03:01:24;7.47;;;5.83;;
249;SDS011;109;19.806;-70.704;2023-05-23T03:03:58;7.17;;;5.23;;
249;SDS011;109;19.806;-70.704;2023-05-23T03:06:24;9.40;;;5.53;;
249;SDS011;109;19.806;-70.704;2023-05-23T03:08:59;7.57;;;5.03;;
249;SDS011;109;19.806;-70.704;2023-05-23T03:11:26;9.80;;;6.67;;
249;SDS011;109;19.806;-70.704;2023-05-23T03:14:01;7.20;;;4.93;;
249;SDS011;109;19.806;-70.704;2023-05-23T03:16:28;6.13;;;4.93;;
249;SDS011;109;19.806;-70.704;2023-05-23T03:19:00;9.53;;;4.90;;
249;SDS011;109;19.806;-70.704;2023-05-23T03:21:28;8.37;;;5.37;;
249;SDS011;109;19.806;-70.704;2023-05-23T03:24:03;10.97;;;5.57;;
249;SDS011;109;19.806;-70.704;2023-05-23T03:26:29;9.00;;;5.30;;
249;SDS011;109;19.806;-70.704;2023-05-23T03:29:02;9.33;;;5.13;;
249;SDS011;109;19.806;-70.704;2023-05-23T03:31:29;9.40;;;5.47;;
249;SDS011;109;19.806;-70.704;2023-05-23T03:34:03;7.63;;;5.13;;
249;SDS011;109;19.806;-70.704;2023-05-23T03:36:50;8.17;;;5.53;;
249;SDS011;109;19.806;-70.704;2023-05-23T03:39:24;9.20;;;5.67;;
249;SDS011;109;19.806;-70.704;2023-05-23T03:41:51;14.90;;;6.17;;
249;SDS011;109;19.806;-70.704;2023-05-23T03:44:24;9.50;;;5.57;;
249;SDS011;109;19.806;-70.704;2023-05-23T03:46:50;10.07;;;5.80;;
249;SDS011;109;19.806;-70.704;2023-05-23T03:49:24;7.70;;;5.33;;
249;SDS011;109;19.806;-70.704;2023-05-23T03:51:58;6.00;;;5.27;;
249;SDS011;109;19.806;-70.704;2023-05-23T03:54:33;9.67;;;5.37;;
249;SDS011;109;19.806;-70.704;2023-05-23T03:56:59;11.87;;;5.57;;
249;SDS011;109;19.806;-70.704;2023-05-23T03:59:34;6.60;;;5.77;;
249;SDS011;109;19.806;-70.704;2023-05-23T04:02:02;8.10;;;5.60;;
249;SDS011;109;19.806;-70.704;2023-05-23T04:04:35;8.00;;;6.13;;
249;SDS011;109;19.806;-70.704;2023-05-23T04:07:01;8.47;;;5.73;;
249;SDS011;109;19.806;-70.704;2023-05-23T04:09:39;9.30;;;5.97;;
249;SDS011;109;19.806;-70.704;2023-05-23T04:12:07;9.00;;;5.07;;
249;SDS011;109;19.806;-70.704;2023-05-23T04:14:41;7.07;;;5.73;;
249;SDS011;109;19.806;-70.704;2023-05-23T04:17:07;6.40;;;4.73;;
249;SDS011;109;19.806;-70.704;2023-05-23T04:19:41;8.77;;;5.30;;
249;SDS011;109;19.806;-70.704;2023-05-23T04:22:07;10.07;;;5.00;;
249;SDS011;109;19.806;-70.704;2023-05-23T04:24:42;8.53;;;4.27;;
249;SDS011;109;19.806;-70.704;2023-05-23T04:27:09;7.20;;;4.83;;
249;SDS011;109;19.806;-70.704;2023-05-23T04:29:49;6.97;;;5.00;;
249;SDS011;109;19.806;-70.704;2023-05-23T04:32:24;10.07;;;5.17;;
249;SDS011;109;19.806;-70.704;2023-05-23T04:35:10;8.20;;;4.60;;
249;SDS011;109;19.806;-70.704;2023-05-23T04:37:44;14.67;;;5.47;;
249;SDS011;109;19.806;-70.704;2023-05-23T04:40:12;6.83;;;4.57;;
249;SDS011;109;19.806;-70.704;2023-05-23T04:43:06;8.20;;;4.60;;
249;SDS011;109;19.806;-70.704;2023-05-23T04:45:50;6.83;;;4.73;;
249;SDS011;109;19.806;-70.704;2023-05-23T04:48:41;10.97;;;5.83;;
249;SDS011;109;19.806;-70.704;2023-05-23T04:51:15;10.43;;;5.77;;
249;SDS011;109;19.806;-70.704;2023-05-23T04:53:57;12.93;;;5.30;;
249;SDS011;109;19.806;-70.704;2023-05-23T04:56:30;11.70;;;4.67;;
249;SDS011;109;19.806;-70.704;2023-05-23T04:58:57;8.50;;;5.13;;
249;SDS011;109;19.806;-70.704;2023-05-23T10:20:07;14.50;;;9.00;;
249;SDS011;109;19.806;-70.704;2023-05-23T10:22:43;11.93;;;8.00;;
249;SDS011;109;19.806;-70.704;2023-05-23T10:25:09;12.33;;;8.27;;
249;SDS011;109;19.806;-70.704;2023-05-23T10:27:43;13.60;;;8.50;;
249;SDS011;109;19.806;-70.704;2023-05-23T10:30:10;12.50;;;8.00;;
249;SDS011;109;19.806;-70.704;2023-05-23T10:32:44;11.73;;;8.63;;
249;SDS011;109;19.806;-70.704;2023-05-23T10:41:22;21.40;;;8.87;;
249;SDS011;109;19.806;-70.704;2023-05-23T10:44:11;10.10;;;7.90;;
249;SDS011;109;19.806;-70.704;2023-05-23T10:46:56;12.67;;;7.43;;
249;SDS011;109;19.806;-70.704;2023-05-23T10:52:11;9.57;;;7.03;;
249;SDS011;109;19.806;-70.704;2023-05-23T10:54:49;11.27;;;7.37;;
249;SDS011;109;19.806;-70.704;2023-05-23T10:57:19;20.23;;;8.03;;
249;SDS011;109;19.806;-70.704;2023-05-23T10:59:54;12.27;;;8.80;;
249;SDS011;109;19.806;-70.704;2023-05-23T11:02:24;19.50;;;9.13;;
249;SDS011;109;19.806;-70.704;2023-05-23T11:08:07;18.23;;;10.20;;
249;SDS011;109;19.806;-70.704;2023-05-23T11:10:52;21.63;;;11.20;;
249;SDS011;109;19.806;-70.704;2023-05-23T11:16:26;18.70;;;10.80;;
249;SDS011;109;19.806;-70.704;2023-05-23T11:19:13;12.47;;;9.40;;
249;SDS011;109;19.806;-70.704;2023-05-23T11:21:46;12.80;;;8.53;;
249;SDS011;109;19.806;-70.704;2023-05-23T11:24:15;11.47;;;8.20;;
249;SDS011;109;19.806;-70.704;2023-05-23T11:26:53;16.17;;;9.13;;
249;SDS011;109;19.806;-70.704;2023-05-23T11:29:27;19.47;;;8.83;;
249;SDS011;109;19.806;-70.704;2023-05-23T11:31:55;12.40;;;9.20;;
249;SDS011;109;19.806;-70.704;2023-05-23T11:34:24;13.57;;;9.40;;
249;SDS011;109;19.806;-70.704;2023-05-23T11:36:52;11.73;;;8.80;;
249;SDS011;109;19.806;-70.704;2023-05-23T11:39:20;13.23;;;7.10;;
249;SDS011;109;19.806;-70.704;2023-05-23T11:41:59;11.10;;;6.70;;
249;SDS011;109;19.806;-70.704;2023-05-23T11:44:27;20.60;;;7.43;;
249;SDS011;109;19.806;-70.704;2023-05-23T11:47:04;12.17;;;6.00;;
249;SDS011;109;19.806;-70.704;2023-05-23T11:49:35;9.80;;;6.33;;
249;SDS011;109;19.806;-70.704;2023-05-23T11:52:03;10.27;;;6.40;;
249;SDS011;109;19.806;-70.704;2023-05-23T11:54:31;11.17;;;6.20;;
249;SDS011;109;19.806;-70.704;2023-05-23T11:56:58;9.60;;;5.07;;
249;SDS011;109;19.806;-70.704;2023-05-23T11:59:25;8.73;;;5.30;;
249;SDS011;109;19.806;-70.704;2023-05-23T12:01:53;11.93;;;5.87;;
249;SDS011;109;19.806;-70.704;2023-05-23T12:04:20;12.63;;;5.37;;
249;SDS011;109;19.806;-70.704;2023-05-23T12:06:47;18.93;;;6.20;;
249;SDS011;109;19.806;-70.704;2023-05-23T12:09:15;15.97;;;6.30;;
249;SDS011;109;19.806;-70.704;2023-05-23T12:11:42;13.67;;;7.50;;
249;SDS011;109;19.806;-70.704;2023-05-23T12:14:14;17.33;;;7.67;;
249;SDS011;109;19.806;-70.704;2023-05-23T12:16:42;16.70;;;7.70;;
249;SDS011;109;19.806;-70.704;2023-05-23T12:19:12;26.03;;;8.00;;
249;SDS011;109;19.806;-70.704;2023-05-23T12:26:53;13.00;;;7.57;;
249;SDS011;109;19.806;-70.704;2023-05-23T12:29:32;14.63;;;9.03;;
249;SDS011;109;19.806;-70.704;2023-05-23T12:32:00;19.97;;;8.57;;
249;SDS011;109;19.806;-70.704;2023-05-23T12:34:28;10.70;;;6.87;;
249;SDS011;109;19.806;-70.704;2023-05-23T12:36:55;10.17;;;6.97;;
249;SDS011;109;19.806;-70.704;2023-05-23T12:39:23;16.40;;;7.23;;
249;SDS011;109;19.806;-70.704;2023-05-23T12:41:54;24.73;;;9.30;;
249;SDS011;109;19.806;-70.704;2023-05-23T12:44:23;22.37;;;10.57;;
249;SDS011;109;19.806;-70.704;2023-05-23T12:46:56;18.17;;;8.70;;
249;SDS011;109;19.806;-70.704;2023-05-23T12:49:22;17.90;;;8.80;;
249;SDS011;109;19.806;-70.704;2023-05-23T12:51:49;22.67;;;8.70;;
249;SDS011;109;19.806;-70.704;2023-05-23T12:54:16;27.07;;;10.53;;
249;SDS011;109;19.806;-70.704;2023-05-23T12:56:42;20.43;;;11.13;;
249;SDS011;109;19.806;-70.704;2023-05-23T12:59:09;15.50;;;9.03;;
249;SDS011;109;19.806;-70.704;2023-05-23T13:01:35;27.43;;;10.37;;
249;SDS011;109;19.806;-70.704;2023-05-23T13:04:02;28.40;;;10.50;;
249;SDS011;109;19.806;-70.704;2023-05-23T13:06:28;12.83;;;8.77;;
249;SDS011;109;19.806;-70.704;2023-05-23T13:08:56;22.90;;;9.60;;
249;SDS011;109;19.806;-70.704;2023-05-23T13:11:23;22.27;;;10.13;;
249;SDS011;109;19.806;-70.704;2023-05-23T13:13:50;20.53;;;9.87;;
249;SDS011;109;19.806;-70.704;2023-05-23T13:16:17;18.50;;;11.13;;
249;SDS011;109;19.806;-70.704;2023-05-23T13:18:43;21.53;;;11.10;;
249;SDS011;109;19.806;-70.704;2023-05-23T13:21:10;23.83;;;10.83;;
249;SDS011;109;19.806;-70.704;2023-05-23T13:23:36;24.33;;;12.53;;
249;SDS011;109;19.806;-70.704;2023-05-23T13:26:03;19.07;;;11.50;;
249;SDS011;109;19.806;-70.704;2023-05-23T13:28:31;29.67;;;12.47;;
249;SDS011;109;19.806;-70.704;2023-05-23T13:30:58;28.40;;;12.27;;
249;SDS011;109;19.806;-70.704;2023-05-23T13:33:26;24.90;;;12.10;;
249;SDS011;109;19.806;-70.704;2023-05-23T13:35:52;24.73;;;13.87;;
249;SDS011;109;19.806;-70.704;2023-05-23T13:38:19;26.30;;;12.63;;
249;SDS011;109;19.806;-70.704;2023-05-23T13:40:46;28.50;;;13.77;;
249;SDS011;109;19.806;-70.704;2023-05-23T13:43:12;26.07;;;14.20;;
249;SDS011;109;19.806;-70.704;2023-05-23T13:45:39;21.00;;;12.90;;
249;SDS011;109;19.806;-70.704;2023-05-23T13:48:05;19.33;;;13.80;;
249;SDS011;109;19.806;-70.704;2023-05-23T13:50:32;16.67;;;9.43;;
249;SDS011;109;19.806;-70.704;2023-05-23T13:52:58;18.10;;;8.70;;
249;SDS011;109;19.806;-70.704;2023-05-23T13:55:25;12.30;;;7.70;;
249;SDS011;109;19.806;-70.704;2023-05-23T13:57:52;18.83;;;7.77;;
249;SDS011;109;19.806;-70.704;2023-05-23T14:00:18;12.43;;;6.90;;
249;SDS011;109;19.806;-70.704;2023-05-23T14:02:45;13.80;;;6.23;;
249;SDS011;109;19.806;-70.704;2023-05-23T14:05:11;28.47;;;7.73;;
249;SDS011;109;19.806;-70.704;2023-05-23T14:07:38;22.50;;;7.40;;
249;SDS011;109;19.806;-70.704;2023-05-23T14:10:05;19.10;;;6.47;;
249;SDS011;109;19.806;-70.704;2023-05-23T14:12:33;12.93;;;5.47;;
249;SDS011;109;19.806;-70.704;2023-05-23T14:15:00;13.03;;;5.40;;
249;SDS011;109;19.806;-70.704;2023-05-23T14:17:26;20.97;;;5.50;;
249;SDS011;109;19.806;-70.704;2023-05-23T14:19:53;12.37;;;5.17;;
249;SDS011;109;19.806;-70.704;2023-05-23T14:22:19;12.80;;;4.53;;
249;SDS011;109;19.806;-70.704;2023-05-23T14:24:46;15.80;;;5.50;;
249;SDS011;109;19.806;-70.704;2023-05-23T14:27:12;12.60;;;5.63;;
249;SDS011;109;19.806;-70.704;2023-05-23T14:29:39;17.27;;;5.90;;
249;SDS011;109;19.806;-70.704;2023-05-23T14:32:05;14.60;;;5.17;;
249;SDS011;109;19.806;-70.704;2023-05-23T14:34:32;19.27;;;5.83;;
249;SDS011;109;19.806;-70.704;2023-05-23T14:36:59;15.30;;;5.33;;
249;SDS011;109;19.806;-70.704;2023-05-23T14:39:25;17.87;;;5.40;;
249;SDS011;109;19.806;-70.704;2023-05-23T14:41:53;17.90;;;5.37;;
249;SDS011;109;19.806;-70.704;2023-05-23T14:44:20;14.60;;;4.70;;
249;SDS011;109;19.806;-70.704;2023-05-23T14:46:46;6.43;;;4.13;;
249;SDS011;109;19.806;-70.704;2023-05-23T14:49:15;28.10;;;5.70;;
249;SDS011;109;19.806;-70.704;2023-05-23T14:51:42;16.37;;;5.90;;
249;SDS011;109;19.806;-70.704;2023-05-23T14:54:08;22.00;;;6.70;;
249;SDS011;109;19.806;-70.704;2023-05-23T14:56:35;23.63;;;6.07;;
249;SDS011;109;19.806;-70.704;2023-05-23T14:59:05;25.60;;;5.60;;
249;SDS011;109;19.806;-70.704;2023-05-23T15:01:32;23.83;;;8.27;;
249;SDS011;109;19.806;-70.704;2023-05-23T15:03:59;13.93;;;6.33;;
249;SDS011;109;19.806;-70.704;2023-05-23T15:06:26;18.40;;;5.70;;
249;SDS011;109;19.806;-70.704;2023-05-23T15:08:52;31.77;;;6.43;;
249;SDS011;109;19.806;-70.704;2023-05-23T15:11:19;25.97;;;6.53;;
249;SDS011;109;19.806;-70.704;2023-05-23T15:13:46;26.97;;;7.43;;
249;SDS011;109;19.806;-70.704;2023-05-23T15:16:12;9.20;;;5.70;;
249;SDS011;109;19.806;-70.704;2023-05-23T15:18:39;20.07;;;6.30;;
249;SDS011;109;19.806;-70.704;2023-05-23T15:21:05;16.93;;;6.37;;
249;SDS011;109;19.806;-70.704;2023-05-23T15:23:32;18.33;;;6.50;;
249;SDS011;109;19.806;-70.704;2023-05-23T15:25:58;23.10;;;6.60;;
249;SDS011;109;19.806;-70.704;2023-05-23T15:28:25;18.17;;;6.47;;
249;SDS011;109;19.806;-70.704;2023-05-23T15:30:51;9.03;;;6.17;;
249;SDS011;109;19.806;-70.704;2023-05-23T15:33:18;18.17;;;7.00;;
249;SDS011;109;19.806;-70.704;2023-05-23T15:35:46;13.70;;;6.40;;
249;SDS011;109;19.806;-70.704;2023-05-23T15:38:13;17.00;;;6.67;;
249;SDS011;109;19.806;-70.704;2023-05-23T15:40:39;13.50;;;6.13;;
249;SDS011;109;19.806;-70.704;2023-05-23T15:43:05;26.33;;;7.00;;
249;SDS011;109;19.806;-70.704;2023-05-23T15:45:32;18.27;;;6.93;;
249;SDS011;109;19.806;-70.704;2023-05-23T15:47:58;23.40;;;7.73;;
249;SDS011;109;19.806;-70.704;2023-05-23T15:50:25;14.73;;;6.13;;
249;SDS011;109;19.806;-70.704;2023-05-23T15:52:51;14.77;;;7.03;;
249;SDS011;109;19.806;-70.704;2023-05-23T15:55:18;25.30;;;7.60;;
249;SDS011;109;19.806;-70.704;2023-05-23T15:57:44;12.70;;;6.90;;
249;SDS011;109;19.806;-70.704;2023-05-23T16:00:11;12.17;;;6.77;;
249;SDS011;109;19.806;-70.704;2023-05-23T16:02:38;8.80;;;6.77;;
249;SDS011;109;19.806;-70.704;2023-05-23T16:05:04;18.37;;;7.10;;
249;SDS011;109;19.806;-70.704;2023-05-23T16:07:31;11.33;;;6.53;;
249;SDS011;109;19.806;-70.704;2023-05-23T16:09:58;30.03;;;7.73;;
249;SDS011;109;19.806;-70.704;2023-05-23T16:12:24;19.20;;;7.33;;
249;SDS011;109;19.806;-70.704;2023-05-23T16:14:50;14.93;;;7.33;;
249;SDS011;109;19.806;-70.704;2023-05-23T16:17:17;22.73;;;8.20;;
249;SDS011;109;19.806;-70.704;2023-05-23T16:19:43;12.63;;;5.90;;
249;SDS011;109;19.806;-70.704;2023-05-23T16:22:10;22.53;;;7.60;;
249;SDS011;109;19.806;-70.704;2023-05-23T16:24:36;24.30;;;6.30;;
249;SDS011;109;19.806;-70.704;2023-05-23T16:27:03;13.83;;;5.83;;
249;SDS011;109;19.806;-70.704;2023-05-23T16:29:30;18.17;;;6.80;;
249;SDS011;109;19.806;-70.704;2023-05-23T16:31:56;29.43;;;7.27;;
249;SDS011;109;19.806;-70.704;2023-05-23T16:34:23;18.60;;;6.70;;
249;SDS011;109;19.806;-70.704;2023-05-23T16:36:49;17.60;;;6.80;;
249;SDS011;109;19.806;-70.704;2023-05-23T16:39:16;18.73;;;6.60;;
249;SDS011;109;19.806;-70.704;2023-05-23T16:41:42;20.07;;;6.40;;
249;SDS011;109;19.806;-70.704;2023-05-23T16:44:09;22.20;;;6.17;;
249;SDS011;109;19.806;-70.704;2023-05-23T16:46:35;17.47;;;5.73;;
249;SDS011;109;19.806;-70.704;2023-05-23T16:49:02;22.00;;;7.10;;
249;SDS011;109;19.806;-70.704;2023-05-23T16:51:28;14.73;;;5.60;;
249;SDS011;109;19.806;-70.704;2023-05-23T16:53:56;22.33;;;6.20;;
249;SDS011;109;19.806;-70.704;2023-05-23T16:56:22;12.63;;;5.60;;
249;SDS011;109;19.806;-70.704;2023-05-23T16:58:49;13.70;;;5.40;;
249;SDS011;109;19.806;-70.704;2023-05-23T17:01:15;17.27;;;6.60;;
249;SDS011;109;19.806;-70.704;2023-05-23T17:03:44;32.27;;;7.20;;
249;SDS011;109;19.806;-70.704;2023-05-23T17:06:11;30.80;;;6.80;;
249;SDS011;109;19.806;-70.704;2023-05-23T17:08:37;23.83;;;7.30;;
249;SDS011;109;19.806;-70.704;2023-05-23T17:11:04;17.47;;;6.53;;
249;SDS011;109;19.806;-70.704;2023-05-23T17:13:30;23.20;;;7.90;;
249;SDS011;109;19.806;-70.704;2023-05-23T17:15:57;18.10;;;6.83;;
249;SDS011;109;19.806;-70.704;2023-05-23T17:18:23;15.20;;;7.70;;
249;SDS011;109;19.806;-70.704;2023-05-23T17:20:50;18.13;;;7.40;;
249;SDS011;109;19.806;-70.704;2023-05-23T17:23:16;25.87;;;7.73;;
249;SDS011;109;19.806;-70.704;2023-05-23T17:25:43;12.33;;;6.50;;
249;SDS011;109;19.806;-70.704;2023-05-23T17:28:10;26.80;;;7.30;;
249;SDS011;109;19.806;-70.704;2023-05-23T17:30:36;46.60;;;9.40;;
249;SDS011;109;19.806;-70.704;2023-05-23T17:33:03;20.37;;;7.20;;
249;SDS011;109;19.806;-70.704;2023-05-23T17:35:29;16.40;;;5.73;;
249;SDS011;109;19.806;-70.704;2023-05-23T17:37:56;22.00;;;8.03;;
249;SDS011;109;19.806;-70.704;2023-05-23T17:40:23;18.90;;;6.90;;
249;SDS011;109;19.806;-70.704;2023-05-23T17:42:50;43.57;;;10.27;;
249;SDS011;109;19.806;-70.704;2023-05-23T17:45:17;23.13;;;8.23;;
249;SDS011;109;19.806;-70.704;2023-05-23T17:47:43;16.13;;;6.60;;
249;SDS011;109;19.806;-70.704;2023-05-23T17:50:13;25.43;;;7.60;;
249;SDS011;109;19.806;-70.704;2023-05-23T17:52:40;16.37;;;7.50;;
249;SDS011;109;19.806;-70.704;2023-05-23T17:55:07;16.20;;;6.87;;
249;SDS011;109;19.806;-70.704;2023-05-23T17:57:34;19.87;;;8.00;;
249;SDS011;109;19.806;-70.704;2023-05-23T18:00:00;16.23;;;7.10;;
249;SDS011;109;19.806;-70.704;2023-05-23T18:02:27;12.80;;;7.77;;
249;SDS011;109;19.806;-70.704;2023-05-23T18:04:53;36.17;;;8.10;;
249;SDS011;109;19.806;-70.704;2023-05-23T18:07:21;23.63;;;7.53;;
249;SDS011;109;19.806;-70.704;2023-05-23T18:09:47;17.17;;;6.60;;
249;SDS011;109;19.806;-70.704;2023-05-23T18:12:14;13.37;;;7.87;;
249;SDS011;109;19.806;-70.704;2023-05-23T18:14:41;16.87;;;8.17;;
249;SDS011;109;19.806;-70.704;2023-05-23T18:17:08;21.13;;;8.40;;
249;SDS011;109;19.806;-70.704;2023-05-23T18:19:34;21.93;;;8.40;;
249;SDS011;109;19.806;-70.704;2023-05-23T18:22:01;37.50;;;10.87;;
249;SDS011;109;19.806;-70.704;2023-05-23T18:24:28;25.50;;;9.93;;
249;SDS011;109;19.806;-70.704;2023-05-23T18:26:54;18.10;;;9.00;;
249;SDS011;109;19.806;-70.704;2023-05-23T18:29:21;22.60;;;8.63;;
249;SDS011;109;19.806;-70.704;2023-05-23T18:31:47;15.33;;;8.40;;
249;SDS011;109;19.806;-70.704;2023-05-23T18:34:14;14.70;;;8.77;;
249;SDS011;109;19.806;-70.704;2023-05-23T18:36:40;15.50;;;8.33;;
249;SDS011;109;19.806;-70.704;2023-05-23T18:39:07;37.97;;;10.40;;
249;SDS011;109;19.806;-70.704;2023-05-23T18:41:34;25.57;;;10.40;;
249;SDS011;109;19.806;-70.704;2023-05-23T18:44:01;33.83;;;11.80;;
249;SDS011;109;19.806;-70.704;2023-05-23T18:46:29;13.23;;;8.40;;
249;SDS011;109;19.806;-70.704;2023-05-23T18:48:56;15.13;;;9.60;;
249;SDS011;109;19.806;-70.704;2023-05-23T18:51:22;11.17;;;8.40;;
249;SDS011;109;19.806;-70.704;2023-05-23T18:53:49;18.20;;;9.20;;
249;SDS011;109;19.806;-70.704;2023-05-23T18:56:16;14.43;;;8.80;;
249;SDS011;109;19.806;-70.704;2023-05-23T18:58:42;15.90;;;8.43;;
249;SDS011;109;19.806;-70.704;2023-05-23T19:01:09;14.27;;;8.00;;
249;SDS011;109;19.806;-70.704;2023-05-23T19:03:35;15.00;;;9.13;;
249;SDS011;109;19.806;-70.704;2023-05-23T19:06:02;14.53;;;9.07;;
249;SDS011;109;19.806;-70.704;2023-05-23T19:08:29;15.23;;;9.30;;
249;SDS011;109;19.806;-70.704;2023-05-23T19:10:57;12.60;;;8.23;;
249;SDS011;109;19.806;-70.704;2023-05-23T19:13:24;16.23;;;9.50;;
249;SDS011;109;19.806;-70.704;2023-05-23T19:15:51;14.30;;;9.30;;
249;SDS011;109;19.806;-70.704;2023-05-23T19:18:18;12.63;;;8.60;;
249;SDS011;109;19.806;-70.704;2023-05-23T19:20:45;14.73;;;9.13;;
249;SDS011;109;19.806;-70.704;2023-05-23T19:23:16;13.60;;;9.03;;
249;SDS011;109;19.806;-70.704;2023-05-23T19:25:43;14.40;;;9.00;;
249;SDS011;109;19.806;-70.704;2023-05-23T19:28:10;14.13;;;9.10;;
249;SDS011;109;19.806;-70.704;2023-05-23T19:30:37;12.13;;;8.80;;
249;SDS011;109;19.806;-70.704;2023-05-23T19:33:03;14.33;;;8.77;;
249;SDS011;109;19.806;-70.704;2023-05-23T19:35:30;12.70;;;9.70;;
249;SDS011;109;19.806;-70.704;2023-05-23T19:37:57;13.20;;;8.80;;
249;SDS011;109;19.806;-70.704;2023-05-23T19:40:23;17.60;;;9.03;;
249;SDS011;109;19.806;-70.704;2023-05-23T19:42:50;12.37;;;8.60;;
249;SDS011;109;19.806;-70.704;2023-05-23T19:45:16;18.17;;;8.53;;
249;SDS011;109;19.806;-70.704;2023-05-23T19:47:46;15.30;;;8.67;;
249;SDS011;109;19.806;-70.704;2023-05-23T19:50:13;30.93;;;10.20;;
249;SDS011;109;19.806;-70.704;2023-05-23T19:52:39;25.43;;;9.00;;
249;SDS011;109;19.806;-70.704;2023-05-23T19:55:07;22.70;;;8.40;;
249;SDS011;109;19.806;-70.704;2023-05-23T19:57:34;21.63;;;7.83;;
249;SDS011;109;19.806;-70.704;2023-05-23T20:00:01;15.63;;;8.57;;
249;SDS011;109;19.806;-70.704;2023-05-23T20:02:30;8.97;;;5.63;;
249;SDS011;109;19.806;-70.704;2023-05-23T20:04:56;8.77;;;5.63;;
249;SDS011;109;19.806;-70.704;2023-05-23T20:07:22;13.10;;;4.90;;
249;SDS011;109;19.806;-70.704;2023-05-23T20:09:49;9.90;;;4.53;;
249;SDS011;109;19.806;-70.704;2023-05-23T20:12:15;5.50;;;4.53;;
249;SDS011;109;19.806;-70.704;2023-05-23T20:14:42;10.83;;;5.50;;
249;SDS011;109;19.806;-70.704;2023-05-23T20:17:08;16.67;;;8.43;;
249;SDS011;109;19.806;-70.704;2023-05-23T20:19:35;12.87;;;4.63;;
249;SDS011;109;19.806;-70.704;2023-05-23T20:22:01;11.90;;;4.97;;
249;SDS011;109;19.806;-70.704;2023-05-23T20:24:28;12.37;;;4.27;;
249;SDS011;109;19.806;-70.704;2023-05-23T20:26:56;12.70;;;4.30;;
249;SDS011;109;19.806;-70.704;2023-05-23T20:29:23;13.90;;;3.90;;
249;SDS011;109;19.806;-70.704;2023-05-23T20:31:49;12.70;;;3.73;;
249;SDS011;109;19.806;-70.704;2023-05-23T20:34:16;10.33;;;4.20;;
249;SDS011;109;19.806;-70.704;2023-05-23T20:36:42;15.97;;;3.67;;
249;SDS011;109;19.806;-70.704;2023-05-23T20:39:09;10.27;;;3.60;;
249;SDS011;109;19.806;-70.704;2023-05-23T20:41:35;15.60;;;4.20;;
249;SDS011;109;19.806;-70.704;2023-05-23T20:44:02;10.07;;;3.70;;
249;SDS011;109;19.806;-70.704;2023-05-23T20:46:28;16.83;;;3.70;;
249;SDS011;109;19.806;-70.704;2023-05-23T20:48:54;20.93;;;6.27;;
249;SDS011;109;19.806;-70.704;2023-05-23T20:51:22;8.47;;;3.53;;
249;SDS011;109;19.806;-70.704;2023-05-23T20:53:49;16.13;;;4.37;;
249;SDS011;109;19.806;-70.704;2023-05-23T20:56:17;14.13;;;3.80;;